Time;durP1;ratioP1;P1;durP2;ratioP2;P2;SDS_P1;SDS_P2;PMS_P1;PMS_P2;Temp;Humidity;BMP_temperature;BMP_pressure;BME280_temperature;BME280_humidity;BME280_pressure;Samples;Min_cycle;Max_cycle;Signal;HPM_P1;HPM_P2
2021/04/20 00:01:33;;;;;;;;;;;;;;;21.50;29.37;97018.44;5087319;28;1891;-87
2021/04/20 00:03:58;;;;;;;;;;;;;;;21.44;29.87;97018.28;5087512;28;627;-86
2021/04/20 00:06:24;;;;;;;;;;;;;;;21.44;29.89;97009.00;5070327;28;1138;-86
2021/04/20 00:08:49;;;;;;;;;;;;;;;21.44;29.67;97014.66;5086622;28;1212;-86
2021/04/20 00:11:14;;;;;;;;;;;;;;;21.47;29.90;97008.09;5086956;28;1162;-86
2021/04/20 00:13:40;;;;;;;;;;;;;;;21.54;29.76;97013.44;5085958;28;1075;-86
2021/04/20 00:16:05;;;;;;;;;;;;;;;21.57;29.71;97012.50;5086914;28;934;-87
2021/04/20 00:18:31;;;;;;;;;;;;;;;21.63;29.60;97009.84;5087062;28;928;-86
2021/04/20 00:20:56;;;;;;;;;;;;;;;22.11;28.93;97011.00;5086943;28;646;-87
2021/04/20 00:23:22;;;;;;;;;;;;;;;22.34;28.40;97013.22;5086632;28;1898;-86
2021/04/20 00:25:47;;;;;;;;;;;;;;;22.22;28.45;97005.66;5087388;28;938;-87
2021/04/20 00:28:20;;;;;;;;;;;;;;;21.87;29.30;96995.88;5069607;28;1293;-87
2021/04/20 00:30:46;;;;;;;;;;;;;;;21.75;29.22;96995.53;5087756;28;694;-86
2021/04/20 00:33:11;;;;;;;;;;;;;;;21.67;29.40;96993.50;5070044;28;1249;-87
2021/04/20 00:35:37;;;;;;;;;;;;;;;21.63;29.67;96993.66;5086434;28;1401;-86
2021/04/20 00:38:02;;;;;;;;;;;;;;;21.53;29.87;97001.34;5069995;28;1306;-87
2021/04/20 00:40:28;;;;;;;;;;;;;;;21.56;29.66;97000.41;5086306;28;836;-86
2021/04/20 00:42:54;;;;;;;;;;;;;;;21.62;29.72;96986.41;5069524;28;1879;-84
2021/04/20 00:45:21;;;;;;;;;;;;;;;21.61;30.01;96987.69;5069870;28;761;-86
2021/04/20 00:47:46;;;;;;;;;;;;;;;21.45;29.86;96990.78;5086285;28;955;-87
2021/04/20 00:50:12;;;;;;;;;;;;;;;21.51;30.06;96998.19;5086779;28;881;-86
2021/04/20 00:52:38;;;;;;;;;;;;;;;21.54;29.91;96996.44;5070334;28;1198;-86
2021/04/20 00:55:04;;;;;;;;;;;;;;;21.66;29.76;96998.38;5069638;28;1253;-85
2021/04/20 00:57:30;;;;;;;;;;;;;;;22.22;28.67;96999.19;5086200;28;1462;-87
2021/04/20 00:59:56;;;;;;;;;;;;;;;22.42;28.65;96996.66;5069743;28;1197;-87
2021/04/20 01:02:21;;;;;;;;;;;;;;;22.26;28.37;96994.94;5070225;28;1914;-86
2021/04/20 01:04:47;;;;;;;;;;;;;;;21.81;29.26;96992.88;5086168;28;872;-86
2021/04/20 01:07:12;;;;;;;;;;;;;;;21.65;29.18;97005.28;5085870;28;937;-86
2021/04/20 01:09:38;;;;;;;;;;;;;;;21.68;29.45;97001.50;5086055;28;1188;-86
2021/04/20 01:12:03;;;;;;;;;;;;;;;21.66;29.60;96998.38;5086503;28;842;-86
2021/04/20 01:14:29;;;;;;;;;;;;;;;21.57;29.83;97001.97;5103294;28;1261;-86
2021/04/20 01:16:54;;;;;;;;;;;;;;;21.56;29.81;96993.97;5086246;28;638;-86
2021/04/20 01:19:20;;;;;;;;;;;;;;;21.59;29.96;97004.31;5086112;28;1185;-86
2021/04/20 01:21:45;;;;;;;;;;;;;;;21.53;30.02;96995.66;5068848;28;1887;-86
2021/04/20 01:24:11;;;;;;;;;;;;;;;21.56;30.09;96996.78;5085660;28;1112;-86
2021/04/20 01:26:37;;;;;;;;;;;;;;;21.71;29.74;96992.09;5105305;28;1293;-84
2021/04/20 01:29:03;;;;;;;;;;;;;;;22.14;29.25;96997.97;5089614;28;877;-85
2021/04/20 01:31:29;;;;;;;;;;;;;;;22.36;28.84;96992.88;5073649;28;1173;-87
2021/04/20 01:33:54;;;;;;;;;;;;;;;22.38;28.49;96975.41;5089899;28;1135;-87
2021/04/20 01:36:20;;;;;;;;;;;;;;;21.90;29.01;96977.94;5072759;28;1207;-87
2021/04/20 01:38:46;;;;;;;;;;;;;;;21.66;29.47;96978.56;5090051;28;1181;-87
2021/04/20 01:41:12;;;;;;;;;;;;;;;21.77;29.43;96980.94;5090176;28;919;-86
2021/04/20 01:43:38;;;;;;;;;;;;;;;21.72;29.65;96979.50;5089063;28;1906;-86
2021/04/20 01:46:23;;;;;;;;;;;;;;;21.72;29.44;96979.50;5090055;28;757;-87
2021/04/20 01:48:49;;;;;;;;;;;;;;;21.61;29.82;96984.84;5089751;28;1342;-86
2021/04/20 01:51:16;;;;;;;;;;;;;;;21.54;29.90;96980.25;5089755;28;649;-87
2021/04/20 01:53:52;;;;;;;;;;;;;;;21.52;30.09;96988.44;5089809;28;1063;-86
2021/04/20 01:56:18;;;;;;;;;;;;;;;21.49;29.98;96988.59;5088832;28;944;-86
2021/04/20 01:58:43;;;;;;;;;;;;;;;21.72;29.91;96990.06;5089224;28;606;-85
2021/04/20 02:01:13;;;;;;;;;;;;;;;22.15;29.24;96986.16;5089731;28;1198;-87
2021/04/20 02:03:38;;;;;;;;;;;;;;;22.44;28.54;96982.03;5089051;28;1961;-87
2021/04/20 02:06:07;;;;;;;;;;;;;;;22.06;28.92;96980.44;5090102;28;778;-87
2021/04/20 02:08:33;;;;;;;;;;;;;;;21.65;29.83;96979.78;5071949;28;1193;-87
2021/04/20 02:10:59;;;;;;;;;;;;;;;21.62;29.54;96975.09;5073702;28;1300;-86
2021/04/20 02:13:24;;;;;;;;;;;;;;;21.64;29.78;96989.56;5089232;28;1193;-87
2021/04/20 02:15:50;;;;;;;;;;;;;;;21.65;29.98;96979.78;5089625;28;1355;-87
2021/04/20 02:18:15;;;;;;;;;;;;;;;21.56;30.08;96988.31;5089831;28;622;-87
2021/04/20 02:20:41;;;;;;;;;;;;;;;21.43;30.28;96981.97;5072592;28;1186;-87
2021/04/20 02:23:06;;;;;;;;;;;;;;;21.63;30.34;96985.16;5072188;28;1967;-85
2021/04/20 02:25:32;;;;;;;;;;;;;;;22.43;28.84;96981.22;5088881;28;1284;-87
2021/04/20 02:27:57;;;;;;;;;;;;;;;22.54;28.56;96975.06;5072495;28;1348;-87
2021/04/20 02:30:23;;;;;;;;;;;;;;;22.22;28.87;96977.31;5089214;28;841;-87
2021/04/20 02:32:49;;;;;;;;;;;;;;;21.79;29.52;96984.84;5089298;28;1122;-86
2021/04/20 02:35:15;;;;;;;;;;;;;;;21.75;29.50;96978.53;5089656;28;690;-86
2021/04/20 02:37:40;;;;;;;;;;;;;;;21.67;29.84;96977.31;5088641;28;887;-86
2021/04/20 02:40:19;;;;;;;;;;;;;;;21.63;29.73;96981.53;5088351;28;935;-87
2021/04/20 02:42:44;;;;;;;;;;;;;;;21.75;29.95;96989.88;5072275;28;1959;-86
2021/04/20 02:45:10;;;;;;;;;;;;;;;21.54;30.10;96993.63;5088618;28;1202;-86
2021/04/20 02:47:36;;;;;;;;;;;;;;;21.49;29.91;96997.06;5088405;28;1188;-87
2021/04/20 02:50:11;;;;;;;;;;;;;;;21.41;30.22;96995.81;5088860;28;865;-87
2021/04/20 02:52:37;;;;;;;;;;;;;;;21.47;30.15;97000.38;5089033;28;1005;-86
2021/04/20 02:55:06;;;;;;;;;;;;;;;21.56;30.21;96999.63;5087966;28;877;-87
2021/04/20 02:57:33;;;;;;;;;;;;;;;22.00;29.53;96993.66;5088732;28;662;-87
2021/04/20 02:59:58;;;;;;;;;;;;;;;22.31;28.86;96994.31;5088466;28;1152;-87
2021/04/20 03:02:24;;;;;;;;;;;;;;;22.48;28.58;96991.13;5088625;28;1975;-85
2021/04/20 03:04:50;;;;;;;;;;;;;;;21.93;29.15;96994.00;5087760;28;1093;-87
2021/04/20 03:07:15;;;;;;;;;;;;;;;21.82;29.49;96995.25;5088146;28;1030;-87
2021/04/20 03:09:41;;;;;;;;;;;;;;;21.77;29.33;96998.69;5087820;28;973;-87
2021/04/20 03:12:07;;;;;;;;;;;;;;;21.64;30.02;97009.38;5087957;28;902;-87
2021/04/20 03:14:32;;;;;;;;;;;;;;;21.54;29.89;96999.28;5072411;28;1323;-87
2021/04/20 03:16:57;;;;;;;;;;;;;;;21.67;29.97;97004.81;5088164;28;1146;-86
2021/04/20 03:19:23;;;;;;;;;;;;;;;21.72;29.70;97007.81;5087293;28;896;-86
2021/04/20 03:21:49;;;;;;;;;;;;;;;22.09;29.64;97002.16;5070553;28;1890;-86
2021/04/20 03:24:30;;;;;;;;;;;;;;;22.39;28.99;97005.34;5087059;28;925;-86
2021/04/20 03:26:55;;;;;;;;;;;;;;;22.57;28.72;97005.28;5087345;28;920;-85
2021/04/20 03:29:26;;;;;;;;;;;;;;;22.16;29.01;97009.59;5088067;28;1156;-84
2021/04/20 03:31:53;;;;;;;;;;;;;;;21.85;29.69;97021.81;5070187;28;714;-85
2021/04/20 03:34:30;;;;;;;;;;;;;;;21.76;29.75;97016.97;5069835;28;840;-86
2021/04/20 03:37:06;;;;;;;;;;;;;;;21.66;30.05;97018.19;5086660;28;1170;-86
2021/04/20 03:39:36;;;;;;;;;;;;;;;21.69;29.86;97031.41;5086930;28;642;-86
2021/04/20 03:42:05;;;;;;;;;;;;;;;21.68;30.07;97035.50;5087407;28;1959;-86
2021/04/20 03:44:32;;;;;;;;;;;;;;;21.56;30.24;97037.19;5087075;28;617;-86
2021/04/20 03:47:00;;;;;;;;;;;;;;;21.59;30.15;97041.13;5086861;28;1150;-87
2021/04/20 03:49:38;;;;;;;;;;;;;;;21.47;30.44;97042.03;5085442;28;959;-87
2021/04/20 03:52:04;;;;;;;;;;;;;;;21.57;30.27;97046.47;5086825;28;886;-86
2021/04/20 03:54:30;;;;;;;;;;;;;;;21.46;30.35;97040.47;5086963;28;1181;-86
2021/04/20 03:56:56;;;;;;;;;;;;;;;21.96;29.68;97052.50;5070210;28;1318;-86
2021/04/20 03:59:22;;;;;;;;;;;;;;;22.29;29.35;97052.72;5087353;28;1196;-86
2021/04/20 04:01:48;;;;;;;;;;;;;;;22.54;28.73;97054.47;5070240;28;1902;-86
2021/04/20 04:04:23;;;;;;;;;;;;;;;22.00;29.33;97056.00;5070637;28;1200;-86
2021/04/20 04:06:48;;;;;;;;;;;;;;;21.89;29.58;97069.81;5086016;28;864;-86
2021/04/20 04:09:15;;;;;;;;;;;;;;;21.78;29.99;97061.78;5069426;28;1153;-87
2021/04/20 04:11:44;;;;;;;;;;;;;;;21.70;29.82;97069.78;5086648;28;1198;-86
2021/04/20 04:14:10;;;;;;;;;;;;;;;21.60;30.32;97076.66;5086703;28;883;-87
2021/04/20 04:16:35;;;;;;;;;;;;;;;21.55;30.33;97078.09;5087333;28;1265;-87
2021/04/20 04:19:01;;;;;;;;;;;;;;;21.63;30.19;97078.56;5085899;28;1076;-87
2021/04/20 04:21:30;;;;;;;;;;;;;;;21.53;30.36;97085.47;5086493;28;1331;-87
2021/04/20 04:24:05;;;;;;;;;;;;;;;21.61;30.23;97081.09;5069911;28;1976;-87
2021/04/20 04:26:33;;;;;;;;;;;;;;;21.59;30.21;97083.59;5086358;28;1325;-87
2021/04/20 04:28:58;;;;;;;;;;;;;;;21.57;30.22;97086.09;5086386;28;718;-87
2021/04/20 04:31:24;;;;;;;;;;;;;;;21.95;30.15;97087.75;5085906;28;1272;-87
2021/04/20 04:33:50;;;;;;;;;;;;;;;22.28;29.25;97088.78;5085271;28;986;-86
2021/04/20 04:36:15;;;;;;;;;;;;;;;22.28;29.20;97088.78;5086130;28;857;-86
2021/04/20 04:38:40;;;;;;;;;;;;;;;21.95;29.19;97091.38;5085613;28;991;-86
2021/04/20 04:41:06;;;;;;;;;;;;;;;21.74;29.71;97095.91;5086419;28;939;-86
2021/04/20 04:43:32;;;;;;;;;;;;;;;21.54;30.09;97087.03;5085669;28;1955;-86
2021/04/20 04:45:57;;;;;;;;;;;;;;;21.50;30.34;97109.84;5069452;28;1171;-85
2021/04/20 04:48:23;;;;;;;;;;;;;;;21.56;30.22;97107.19;5085327;28;843;-86
2021/04/20 04:50:49;;;;;;;;;;;;;;;21.62;30.09;97099.66;5085711;28;922;-87
2021/04/20 04:53:14;;;;;;;;;;;;;;;21.62;30.06;97105.31;5069589;28;1259;-86
2021/04/20 04:55:40;;;;;;;;;;;;;;;21.68;30.03;97102.66;5086247;28;778;-86
2021/04/20 04:58:06;;;;;;;;;;;;;;;22.06;29.90;97111.53;5067953;28;1175;-87
2021/04/20 05:00:31;;;;;;;;;;;;;;;22.30;29.25;97117.44;5084603;28;1133;-84
2021/04/20 05:02:58;;;;;;;;;;;;;;;22.48;28.96;97107.34;5085467;28;1883;-86
2021/04/20 05:05:24;;;;;;;;;;;;;;;22.03;29.17;97123.03;5085916;28;961;-87
2021/04/20 05:07:49;;;;;;;;;;;;;;;21.84;29.43;97116.53;5086265;28;1460;-86
2021/04/20 05:10:15;;;;;;;;;;;;;;;21.84;29.40;97128.66;5069352;28;1253;-86
2021/04/20 05:12:40;;;;;;;;;;;;;;;21.71;29.98;97133.66;5086180;28;910;-87
2021/04/20 05:15:13;;;;;;;;;;;;;;;21.79;29.67;97125.66;5087104;28;675;-86
2021/04/20 05:17:42;;;;;;;;;;;;;;;21.64;30.11;97131.09;5069774;28;1189;-87
2021/04/20 05:20:09;;;;;;;;;;;;;;;21.67;30.17;97135.06;5086071;28;1488;-87
2021/04/20 05:22:35;;;;;;;;;;;;;;;21.63;30.15;97135.19;5070042;28;1952;-87
2021/04/20 05:25:10;;;;;;;;;;;;;;;21.47;30.51;97138.28;5085906;28;873;-87
2021/04/20 05:27:38;;;;;;;;;;;;;;;21.44;30.49;97133.53;5086480;28;1305;-87
2021/04/20 05:30:04;;;;;;;;;;;;;;;21.41;30.70;97148.63;5086260;28;845;-87
2021/04/20 05:32:31;;;;;;;;;;;;;;;21.72;30.42;97149.38;5069297;28;1209;-87
2021/04/20 05:34:58;;;;;;;;;;;;;;;22.11;29.57;97144.16;5085794;28;1169;-86
2021/04/20 05:37:40;;;;;;;;;;;;;;;22.40;29.28;97145.78;5086596;28;852;-86
2021/04/20 05:40:10;;;;;;;;;;;;;;;22.03;29.52;97140.81;5086737;28;729;-86
2021/04/20 05:42:35;;;;;;;;;;;;;;;21.84;29.50;97145.63;5086471;28;1902;-87
2021/04/20 05:45:01;;;;;;;;;;;;;;;21.63;30.14;97143.69;5086390;28;933;-86
2021/04/20 05:47:26;;;;;;;;;;;;;;;21.54;30.22;97154.97;5085478;28;969;-86
2021/04/20 05:49:59;;;;;;;;;;;;;;;21.61;30.40;97159.56;5086471;28;936;-87
2021/04/20 05:52:24;;;;;;;;;;;;;;;21.55;30.29;97162.19;5086438;28;852;-85
2021/04/20 05:54:53;;;;;;;;;;;;;;;21.61;30.23;97154.69;5085923;28;840;-86
2021/04/20 05:57:19;;;;;;;;;;;;;;;21.56;30.57;97166.63;5070518;28;1184;-87
2021/04/20 05:59:45;;;;;;;;;;;;;;;21.55;30.55;97168.66;5069392;28;1123;-87
2021/04/20 06:02:11;;;;;;;;;;;;;;;21.95;30.06;97173.53;5068963;28;1883;-87
2021/04/20 06:04:36;;;;;;;;;;;;;;;22.35;29.36;97169.88;5085573;28;925;-87
2021/04/20 06:07:02;;;;;;;;;;;;;;;22.49;29.37;97165.66;5085976;28;1325;-87
2021/04/20 06:09:27;;;;;;;;;;;;;;;21.99;29.85;97171.34;5086411;28;651;-87
2021/04/20 06:11:54;;;;;;;;;;;;;;;21.85;30.10;97169.88;5086148;28;829;-87
2021/04/20 06:14:20;;;;;;;;;;;;;;;21.71;30.21;97172.47;5089188;28;891;-87
2021/04/20 06:16:45;;;;;;;;;;;;;;;21.71;30.30;97180.97;5072780;28;1161;-87
2021/04/20 06:19:11;;;;;;;;;;;;;;;21.66;30.50;97175.91;5088475;28;1152;-87
2021/04/20 06:21:36;;;;;;;;;;;;;;;21.75;30.25;97188.06;5072502;28;1178;-87
2021/04/20 06:24:03;;;;;;;;;;;;;;;21.65;30.29;97183.63;5089600;28;1968;-86
2021/04/20 06:26:28;;;;;;;;;;;;;;;21.56;30.91;97180.78;5089684;28;607;-87
2021/04/20 06:28:54;;;;;;;;;;;;;;;21.63;30.50;97179.69;5088940;28;1345;-86
2021/04/20 06:31:20;;;;;;;;;;;;;;;21.54;30.50;97188.94;5072647;28;836;-87
2021/04/20 06:33:46;;;;;;;;;;;;;;;21.71;30.72;97186.63;5072165;28;1222;-87
2021/04/20 06:36:11;;;;;;;;;;;;;;;22.17;30.13;97189.66;5071956;28;1200;-87
2021/04/20 06:38:37;;;;;;;;;;;;;;;22.40;29.43;97197.59;5072632;28;1181;-87
2021/04/20 06:41:03;;;;;;;;;;;;;;;22.23;29.59;97188.59;5072994;28;1172;-87
2021/04/20 06:43:29;;;;;;;;;;;;;;;21.95;29.93;97195.41;5071887;28;1899;-86
2021/04/20 06:45:57;;;;;;;;;;;;;;;21.77;29.87;97205.41;5088958;28;1018;-87
2021/04/20 06:48:24;;;;;;;;;;;;;;;21.70;30.23;97202.84;5088479;28;998;-86
2021/04/20 06:50:56;;;;;;;;;;;;;;;21.69;30.26;97209.75;5072178;28;1353;-86
2021/04/20 06:53:26;;;;;;;;;;;;;;;21.58;30.52;97207.34;5071568;28;1178;-86
2021/04/20 06:56:09;;;;;;;;;;;;;;;21.52;30.87;97208.44;5072490;28;1141;-87
2021/04/20 06:58:46;;;;;;;;;;;;;;;21.45;31.15;97211.50;5088126;28;1155;-87
2021/04/20 07:01:15;;;;;;;;;;;;;;;21.90;31.00;97215.84;5088464;28;947;-87
2021/04/20 07:03:50;;;;;;;;;;;;;;;22.33;30.12;97221.38;5070899;28;1906;-86
2021/04/20 07:06:17;;;;;;;;;;;;;;;22.53;29.63;97223.75;5105460;28;776;-87
2021/04/20 07:08:44;;;;;;;;;;;;;;;22.03;30.10;97225.03;5088212;28;618;-87
2021/04/20 07:11:14;;;;;;;;;;;;;;;21.78;30.33;97226.81;5071956;28;1183;-87
2021/04/20 07:13:42;;;;;;;;;;;;;;;21.88;29.93;97235.34;5071999;28;1169;-86
2021/04/20 07:16:23;;;;;;;;;;;;;;;21.73;30.36;97230.25;5087854;28;1253;-87
2021/04/20 07:19:03;;;;;;;;;;;;;;;21.57;30.62;97233.31;5104796;28;1150;-87
2021/04/20 07:21:32;;;;;;;;;;;;;;;21.57;30.82;97238.97;5087948;28;788;-87
2021/04/20 07:24:04;;;;;;;;;;;;;;;21.57;30.51;97236.91;5089247;28;1982;-87
2021/04/20 07:26:33;;;;;;;;;;;;;;;21.91;30.98;97240.84;5105346;28;1244;-87
2021/04/20 07:29:09;;;;;;;;;;;;;;;22.23;30.35;97253.78;5088545;28;922;-87
2021/04/20 07:31:47;;;;;;;;;;;;;;;22.40;29.85;97253.50;5088339;28;1160;-87
2021/04/20 07:34:26;;;;;;;;;;;;;;;21.87;30.54;97250.75;5087736;28;1051;-87
2021/04/20 07:37:07;;;;;;;;;;;;;;;21.77;30.15;97258.44;5089127;28;661;-70
2021/04/20 07:39:52;;;;;;;;;;;;;;;22.03;30.06;97256.19;5086254;28;610;-87
2021/04/20 07:42:22;;;;;;;;;;;;;;;21.78;30.54;97266.44;5087380;28;1983;-87
2021/04/20 07:44:50;;;;;;;;;;;;;;;21.63;30.72;97271.09;5070965;28;1216;-87
2021/04/20 07:47:16;;;;;;;;;;;;;;;21.52;31.18;97265.81;5103156;28;965;-87
2021/04/20 07:49:53;;;;;;;;;;;;;;;21.65;31.01;97267.78;5086691;28;864;-87
2021/04/20 07:52:25;;;;;;;;;;;;;;;21.75;31.10;97273.03;5087096;28;848;-86
2021/04/20 07:54:55;;;;;;;;;;;;;;;22.22;30.80;97277.66;5087429;28;654;-86
2021/04/20 07:57:26;;;;;;;;;;;;;;;22.41;30.04;97283.41;5086399;28;817;-87
2021/04/20 07:59:52;;;;;;;;;;;;;;;22.32;30.00;97276.44;5087300;28;693;-87
2021/04/20 08:02:36;;;;;;;;;;;;;;;21.84;30.63;97280.78;5087202;28;1894;-87
2021/04/20 08:05:08;;;;;;;;;;;;;;;21.80;30.60;97286.59;5086916;28;839;-87
2021/04/20 08:07:43;;;;;;;;;;;;;;;21.69;30.63;97291.88;5069691;28;1313;-86
2021/04/20 08:10:10;;;;;;;;;;;;;;;21.67;30.86;97293.59;5087083;28;658;-86
2021/04/20 08:12:37;;;;;;;;;;;;;;;21.64;30.92;97294.50;5085941;28;749;-86
2021/04/20 08:15:12;;;;;;;;;;;;;;;21.63;30.92;97299.38;5085905;28;859;-87
2021/04/20 08:17:50;;;;;;;;;;;;;;;21.63;31.07;97302.22;5085329;28;908;-86
2021/04/20 08:20:16;;;;;;;;;;;;;;;21.56;31.08;97306.13;5085341;28;1252;-86
2021/04/20 08:22:42;;;;;;;;;;;;;;;21.92;31.28;97310.44;5085523;28;1947;-86
2021/04/20 08:25:16;;;;;;;;;;;;;;;22.23;30.44;97313.28;5085412;28;862;-87
2021/04/20 08:27:48;;;;;;;;;;;;;;;22.51;29.95;97313.38;5102845;28;1189;-86
2021/04/20 08:30:15;;;;;;;;;;;;;;;21.99;30.51;97312.97;5086262;28;654;-87
2021/04/20 08:32:41;;;;;;;;;;;;;;;21.88;30.22;97314.66;5085898;28;977;-87
2021/04/20 08:35:07;;;;;;;;;;;;;;;21.84;30.31;97317.59;5084531;28;1051;-86
2021/04/20 08:37:41;;;;;;;;;;;;;;;21.68;30.17;97312.94;5086440;28;992;-87
2021/04/20 08:40:06;;;;;;;;;;;;;;;21.61;30.71;97327.38;5085112;28;705;-87
2021/04/20 08:42:49;;;;;;;;;;;;;;;21.53;30.65;97326.06;5084876;28;2193;-87
2021/04/20 08:45:19;;;;;;;;;;;;;;;21.59;30.79;97327.03;5085274;28;772;-87
2021/04/20 08:48:03;;;;;;;;;;;;;;;21.67;30.69;97338.91;5084983;28;900;-87
2021/04/20 08:50:30;;;;;;;;;;;;;;;21.69;30.65;97342.06;5084591;28;849;-88
2021/04/20 08:53:02;;;;;;;;;;;;;;;21.64;31.09;97331.31;5086226;28;891;-87
2021/04/20 08:55:30;;;;;;;;;;;;;;;21.61;30.67;97347.19;5102891;28;819;-87
2021/04/20 08:58:08;;;;;;;;;;;;;;;21.55;30.82;97344.19;5086663;28;595;-87
2021/04/20 09:00:42;;;;;;;;;;;;;;;21.53;31.32;97351.53;5086391;28;801;-87
2021/04/20 09:03:08;;;;;;;;;;;;;;;21.65;30.98;97342.19;5084345;28;1897;-87
2021/04/20 09:05:43;;;;;;;;;;;;;;;21.56;31.03;97350.63;5085864;28;915;-87
2021/04/20 09:08:28;;;;;;;;;;;;;;;22.02;31.25;97348.06;5102567;28;1491;-87
2021/04/20 09:11:00;;;;;;;;;;;;;;;22.26;30.76;97354.84;5085551;28;787;-87
2021/04/20 09:13:27;;;;;;;;;;;;;;;22.52;30.44;97357.47;5086150;28;582;-87
2021/04/20 09:15:55;;;;;;;;;;;;;;;21.96;30.77;97355.59;5086210;28;699;-87
2021/04/20 09:18:21;;;;;;;;;;;;;;;21.84;30.75;97348.75;5068579;28;1155;-87
2021/04/20 09:20:52;;;;;;;;;;;;;;;21.74;30.49;97356.41;5085526;28;965;-87
2021/04/20 09:23:30;;;;;;;;;;;;;;;21.67;30.75;97351.00;5069206;28;1957;-87
2021/04/20 09:26:11;;;;;;;;;;;;;;;21.68;31.06;97368.78;5086679;28;655;-87
2021/04/20 09:28:40;;;;;;;;;;;;;;;21.82;30.89;97380.38;5068246;28;1172;-86
2021/04/20 09:31:17;;;;;;;;;;;;;;;21.58;31.09;97365.09;5085342;28;812;-87
2021/04/20 09:33:46;;;;;;;;;;;;;;;21.66;30.99;97368.44;5067908;28;1213;-87
2021/04/20 09:36:12;;;;;;;;;;;;;;;21.58;31.08;97370.75;5085509;28;947;-87
2021/04/20 09:38:45;;;;;;;;;;;;;;;21.73;30.65;97368.97;5086306;28;940;-86
2021/04/20 09:41:11;;;;;;;;;;;;;;;21.62;31.42;97371.41;5069154;28;1163;-87
2021/04/20 09:43:39;;;;;;;;;;;;;;;21.61;31.30;97364.19;5085057;28;1917;-87
2021/04/20 09:46:09;;;;;;;;;;;;;;;21.66;31.32;97371.28;5069480;28;1184;-87
2021/04/20 09:48:53;;;;;;;;;;;;;;;21.96;31.47;97379.03;5087592;28;961;-87
2021/04/20 09:51:20;;;;;;;;;;;;;;;22.33;31.01;97396.31;5105385;28;895;-88
2021/04/20 09:54:05;;;;;;;;;;;;;;;22.58;30.29;97383.94;5088918;28;911;-87
2021/04/20 09:56:33;;;;;;;;;;;;;;;22.63;30.35;97394.69;5090387;28;718;-86
2021/04/20 09:58:59;;;;;;;;;;;;;;;22.22;30.69;97393.06;5089369;28;823;-87
2021/04/20 10:01:36;;;;;;;;;;;;;;;21.88;31.07;97408.91;5089273;28;1156;-87
2021/04/20 10:04:05;;;;;;;;;;;;;;;21.76;30.63;97410.56;5089791;28;1953;-87
2021/04/20 10:06:34;;;;;;;;;;;;;;;21.79;30.30;97409.63;5089616;28;858;-87
2021/04/20 10:09:03;;;;;;;;;;;;;;;21.83;30.31;97420.81;5090114;28;610;-87
2021/04/20 10:11:43;;;;;;;;;;;;;;;21.75;30.84;97413.81;5089334;28;1129;-87
2021/04/20 10:14:12;;;;;;;;;;;;;;;21.70;30.92;97420.84;5072797;28;1174;-86
2021/04/20 10:16:41;;;;;;;;;;;;;;;21.63;30.89;97421.13;5089429;28;654;-87
2021/04/20 10:19:25;;;;;;;;;;;;;;;21.71;30.82;97418.81;5089474;28;943;-87
2021/04/20 10:22:10;;;;;;;;;;;;;;;21.66;30.95;97420.22;5072716;28;1144;-87
2021/04/20 10:24:43;;;;;;;;;;;;;;;21.55;31.24;97416.97;5089377;28;1339;-87
2021/04/20 10:27:10;;;;;;;;;;;;;;;21.66;31.14;97417.38;5089844;28;570;-87
2021/04/20 10:29:43;;;;;;;;;;;;;;;21.70;30.78;97426.53;5072789;28;1308;-87
2021/04/20 10:32:08;;;;;;;;;;;;;;;21.75;31.03;97425.94;5088890;28;980;-87
2021/04/20 10:34:37;;;;;;;;;;;;;;;21.66;31.20;97428.72;5105596;28;1058;-87
2021/04/20 10:37:04;;;;;;;;;;;;;;;21.62;31.09;97433.72;5088564;28;873;-87
2021/04/20 10:39:30;;;;;;;;;;;;;;;21.63;31.33;97429.63;5089187;28;753;-87
2021/04/20 10:41:56;;;;;;;;;;;;;;;21.62;31.09;97433.72;5089561;28;1909;-87
2021/04/20 10:44:23;;;;;;;;;;;;;;;21.58;31.12;97438.69;5089136;28;991;-87
2021/04/20 10:46:55;;;;;;;;;;;;;;;21.56;30.92;97435.56;5089287;28;1197;-87
2021/04/20 10:49:21;;;;;;;;;;;;;;;21.65;30.96;97427.09;5089051;28;932;-87
2021/04/20 10:51:49;;;;;;;;;;;;;;;22.06;30.98;97433.72;5088474;28;1032;-86
2021/04/20 10:54:14;;;;;;;;;;;;;;;22.29;30.75;97441.78;5089186;28;1180;-87
2021/04/20 10:56:47;;;;;;;;;;;;;;;22.45;30.29;97442.81;5072529;28;1260;-87
2021/04/20 10:59:26;;;;;;;;;;;;;;;22.13;30.54;97444.81;5088072;28;781;-87
2021/04/20 11:01:51;;;;;;;;;;;;;;;21.88;30.96;97442.09;5088588;28;971;-87
2021/04/20 11:04:19;;;;;;;;;;;;;;;21.77;31.02;97446.09;5087926;28;1985;-87
2021/04/20 11:06:44;;;;;;;;;;;;;;;21.80;30.74;97456.50;5087515;28;1169;-87
2021/04/20 11:09:10;;;;;;;;;;;;;;;21.64;31.19;97458.72;5087736;28;1188;-87
2021/04/20 11:11:35;;;;;;;;;;;;;;;21.57;31.39;97451.28;5071023;28;1182;-87
2021/04/20 11:14:02;;;;;;;;;;;;;;;21.55;31.34;97453.75;5088407;28;673;-87
2021/04/20 11:16:40;;;;;;;;;;;;;;;21.64;30.93;97453.84;5072318;28;1297;-87
2021/04/20 11:19:06;;;;;;;;;;;;;;;21.53;31.21;97447.78;5087896;28;948;-87
2021/04/20 11:21:34;;;;;;;;;;;;;;;21.58;31.13;97456.47;5087898;28;895;-87
2021/04/20 11:24:02;;;;;;;;;;;;;;;21.59;31.29;97440.28;5088428;28;1974;-87
2021/04/20 11:26:29;;;;;;;;;;;;;;;21.96;31.60;97449.06;5088600;28;662;-87
2021/04/20 11:28:56;;;;;;;;;;;;;;;22.43;30.49;97439.63;5072359;28;1193;-87
2021/04/20 11:31:24;;;;;;;;;;;;;;;22.52;30.23;97454.66;5072127;28;1289;-87
2021/04/20 11:33:59;;;;;;;;;;;;;;;22.05;30.45;97454.81;5088215;28;1311;-87
2021/04/20 11:36:26;;;;;;;;;;;;;;;21.90;30.63;97442.41;5088694;28;852;-87
2021/04/20 11:38:52;;;;;;;;;;;;;;;21.84;30.57;97445.84;5087929;28;777;-87
2021/04/20 11:41:18;;;;;;;;;;;;;;;21.71;30.73;97447.94;5087601;28;781;-87
2021/04/20 11:43:54;;;;;;;;;;;;;;;21.74;31.00;97455.50;5070444;28;1910;-87
2021/04/20 11:46:21;;;;;;;;;;;;;;;21.63;30.94;97449.44;5087702;28;634;-87
2021/04/20 11:48:48;;;;;;;;;;;;;;;21.66;31.20;97445.69;5071163;28;1217;-87
2021/04/20 11:51:13;;;;;;;;;;;;;;;21.75;31.10;97451.41;5087169;28;837;-87
2021/04/20 11:53:46;;;;;;;;;;;;;;;21.72;31.21;97449.53;5070507;28;1308;-86
2021/04/20 11:56:12;;;;;;;;;;;;;;;21.66;31.39;97445.69;5088894;28;710;-87
2021/04/20 11:58:38;;;;;;;;;;;;;;;21.54;31.60;97457.84;5087181;28;789;-86
2021/04/20 12:01:14;;;;;;;;;;;;;;;21.69;31.33;97447.59;5071725;28;1399;-87
2021/04/20 12:03:50;;;;;;;;;;;;;;;21.70;31.18;97446.34;5069595;28;1913;-87
2021/04/20 12:06:16;;;;;;;;;;;;;;;21.63;31.16;97446.59;5070112;28;1360;-86
2021/04/20 12:08:44;;;;;;;;;;;;;;;21.58;31.05;97450.81;5071199;28;956;-87
2021/04/20 12:11:10;;;;;;;;;;;;;;;21.94;31.72;97451.56;5069830;28;1424;-86
2021/04/20 12:13:36;;;;;;;;;;;;;;;22.20;31.41;97450.22;5086899;28;705;-86
2021/04/20 12:16:10;;;;;;;;;;;;;;;22.39;30.92;97441.84;5070543;28;900;-87
2021/04/20 12:18:36;;;;;;;;;;;;;;;22.29;30.75;97453.13;5070723;28;1216;-86
2021/04/20 12:21:08;;;;;;;;;;;;;;;21.83;31.22;97449.94;5086575;28;832;-85
2021/04/20 12:23:38;;;;;;;;;;;;;;;21.82;30.91;97448.34;5070534;28;1991;-87
2021/04/20 12:26:03;;;;;;;;;;;;;;;21.61;30.93;97456.81;5087253;28;638;-87
2021/04/20 12:28:29;;;;;;;;;;;;;;;21.71;30.64;97442.28;5086292;28;805;-86
2021/04/20 12:30:54;;;;;;;;;;;;;;;21.61;31.25;97448.34;5070650;28;1161;-86
2021/04/20 12:33:20;;;;;;;;;;;;;;;21.68;31.17;97453.72;5086162;28;1286;-87
2021/04/20 12:35:46;;;;;;;;;;;;;;;21.71;31.31;97453.63;5086144;28;798;-87
2021/04/20 12:38:11;;;;;;;;;;;;;;;21.68;31.11;97448.84;5085842;28;828;-87
2021/04/20 12:40:37;;;;;;;;;;;;;;;21.62;31.24;97450.69;5085508;28;850;-87
2021/04/20 12:43:03;;;;;;;;;;;;;;;21.65;31.33;97455.41;5085546;28;1954;-87
2021/04/20 12:45:29;;;;;;;;;;;;;;;21.64;31.25;97459.50;5069791;28;1297;-87
2021/04/20 12:47:56;;;;;;;;;;;;;;;21.62;31.14;97456.34;5085530;28;1057;-87
2021/04/20 12:50:22;;;;;;;;;;;;;;;21.62;31.01;97456.34;5085379;28;830;-87
2021/04/20 12:52:47;;;;;;;;;;;;;;;21.60;31.02;97458.84;5085765;28;1305;-87
2021/04/20 12:55:17;;;;;;;;;;;;;;;21.58;30.98;97450.03;5085230;28;1050;-86
2021/04/20 12:57:44;;;;;;;;;;;;;;;21.90;31.51;97456.56;5085508;28;978;-87
2021/04/20 13:00:11;;;;;;;;;;;;;;;22.22;31.47;97459.03;5068818;28;1175;-86
2021/04/20 13:02:37;;;;;;;;;;;;;;;22.42;30.79;97450.19;5069624;28;2049;-87
2021/04/20 13:05:03;;;;;;;;;;;;;;;22.33;30.79;97448.09;5085326;28;1113;-87
2021/04/20 13:07:29;;;;;;;;;;;;;;;21.91;31.32;97447.59;5085437;28;849;-87
2021/04/20 13:09:55;;;;;;;;;;;;;;;21.78;31.08;97453.34;5068473;28;1449;-87